Time;durP1;ratioP1;P1;durP2;ratioP2;P2;SDS_P1;SDS_P2;PMS_P1;PMS_P2;Temp;Humidity;BMP_temperature;BMP_pressure;BME280_temperature;BME280_humidity;BME280_pressure;Samples;Min_cycle;Max_cycle;Signal;HPM_P1;HPM_P2
2022/11/27 00:00:58;;;;;;;;;;;;;;;14.30;47.40;100291.47;4514387;31;35261;-90
2022/11/27 00:03:26;;;;;;;;;;;;;;;14.72;46.68;100284.28;4514525;31;34497;-87
2022/11/27 00:05:57;;;;;;;;;;;;;;;14.31;47.48;100281.91;4513965;31;33532;-90
2022/11/27 00:08:24;;;;;;;;;;;;;;;14.39;47.58;100280.28;4518458;31;34639;-89
2022/11/27 00:10:52;;;;;;;;;;;;;;;14.32;47.62;100283.69;4519919;31;34923;-91
2022/11/27 00:13:19;;;;;;;;;;;;;;;14.63;47.05;100279.81;4519664;31;34770;-88
2022/11/27 00:15:46;;;;;;;;;;;;;;;14.58;46.96;100285.00;4519500;31;32740;-92
2022/11/27 00:18:14;;;;;;;;;;;;;;;14.69;46.77;100279.03;4519876;31;35168;-90
2022/11/27 00:20:41;;;;;;;;;;;;;;;14.28;47.77;100274.03;4519531;31;35228;-91
2022/11/27 00:23:08;;;;;;;;;;;;;;;14.47;47.41;100281.31;4519595;31;35215;-89
2022/11/27 00:25:35;;;;;;;;;;;;;;;14.65;46.87;100275.50;4519469;31;33446;-90
2022/11/27 00:28:02;;;;;;;;;;;;;;;14.71;46.71;100279.94;4519356;31;34245;-92
2022/11/27 00:30:29;;;;;;;;;;;;;;;14.84;46.07;100279.22;4519111;31;34282;-88
2022/11/27 00:32:57;;;;;;;;;;;;;;;15.19;45.19;100282.31;4519484;31;35272;-88
2022/11/27 00:35:24;;;;;;;;;;;;;;;14.38;46.57;100275.94;4519464;31;33711;-88
2022/11/27 00:37:51;;;;;;;;;;;;;;;14.65;46.17;100282.44;4519159;31;35176;-90
2022/11/27 00:40:18;;;;;;;;;;;;;;;14.67;46.10;100279.00;4519266;31;34393;-89
2022/11/27 00:42:46;;;;;;;;;;;;;;;14.84;45.53;100279.22;4519318;31;34485;-91
2022/11/27 00:45:13;;;;;;;;;;;;;;;14.29;47.18;100286.25;4518936;31;33419;-92
2022/11/27 00:47:40;;;;;;;;;;;;;;;14.56;46.70;100285.81;4519188;31;34395;-91
2022/11/27 00:50:07;;;;;;;;;;;;;;;14.86;45.88;100280.13;4519105;31;35354;-88
2022/11/27 00:52:34;;;;;;;;;;;;;;;14.55;46.19;100297.13;4519167;31;34259;-91
2022/11/27 00:55:02;;;;;;;;;;;;;;;14.51;46.28;100296.19;4494398;31;785093;-91
2022/11/27 00:57:29;;;;;;;;;;;;;;;14.62;45.86;100292.84;4518638;31;34097;-87
2022/11/27 00:59:56;;;;;;;;;;;;;;;15.03;44.83;100283.81;4518697;31;34361;-91
2022/11/27 01:02:24;;;;;;;;;;;;;;;14.78;45.22;100289.59;4518960;31;34426;-91
2022/11/27 01:04:51;;;;;;;;;;;;;;;14.75;45.20;100292.16;4518645;31;33538;-88
2022/11/27 01:07:18;;;;;;;;;;;;;;;14.12;46.45;100297.25;4518992;31;34293;-91
2022/11/27 01:09:45;;;;;;;;;;;;;;;14.79;44.81;100291.34;4518671;31;34490;-88
2022/11/27 01:12:12;;;;;;;;;;;;;;;14.96;44.37;100287.22;4518451;31;34334;-87
2022/11/27 01:14:40;;;;;;;;;;;;;;;15.09;43.92;100288.25;4518468;31;33504;-88
2022/11/27 01:17:07;;;;;;;;;;;;;;;15.09;44.03;100285.66;4517738;31;34084;-88
2022/11/27 01:19:36;;;;;;;;;;;;;;;15.07;43.48;100283.00;4515368;31;35110;-87
2022/11/27 01:22:03;;;;;;;;;;;;;;;15.05;43.31;100276.91;4515703;31;34208;-87
2022/11/27 01:24:30;;;;;;;;;;;;;;;14.83;43.74;100285.31;4515852;31;33759;-87
2022/11/27 01:26:57;;;;;;;;;;;;;;;14.87;43.50;100289.72;4515587;31;34320;-90
2022/11/27 01:29:24;;;;;;;;;;;;;;;14.81;43.53;100289.62;4515631;31;34474;-92
2022/11/27 01:31:52;;;;;;;;;;;;;;;14.51;44.18;100296.19;4515749;31;35142;-91
2022/11/27 01:34:19;;;;;;;;;;;;;;;14.80;43.75;100291.34;4515761;31;34292;-91
2022/11/27 01:36:46;;;;;;;;;;;;;;;14.80;43.70;100293.97;4515496;31;33723;-92
2022/11/27 01:39:14;;;;;;;;;;;;;;;14.34;44.39;100301.09;4515609;31;34512;-87
2022/11/27 01:41:42;;;;;;;;;;;;;;;14.64;43.98;100299.84;4515429;31;35293;-88
2022/11/27 01:44:24;;;;;;;;;;;;;;;14.71;43.60;100287.75;4515491;31;34459;-88
2022/11/27 01:46:52;;;;;;;;;;;;;;;14.85;43.16;100291.44;4515504;31;34586;-91
2022/11/27 01:49:24;;;;;;;;;;;;;;;14.33;44.13;100294.13;4514147;31;35283;-91
2022/11/27 01:51:51;;;;;;;;;;;;;;;14.22;44.58;100287.00;4514471;31;34369;-87
2022/11/27 01:54:19;;;;;;;;;;;;;;;14.53;44.09;100284.03;4515406;31;34499;-91
2022/11/27 01:56:47;;;;;;;;;;;;;;;14.45;44.13;100287.34;4514055;31;34425;-91
2022/11/27 01:59:15;;;;;;;;;;;;;;;14.05;45.35;100295.44;4514342;31;35233;-87
2022/11/27 02:01:42;;;;;;;;;;;;;;;13.94;45.69;100296.06;4515899;31;34532;-87
2022/11/27 02:04:10;;;;;;;;;;;;;;;14.08;45.29;100302.41;4515302;31;34366;-87
2022/11/27 02:06:37;;;;;;;;;;;;;;;14.08;45.36;100294.59;4514275;31;34029;-92
2022/11/27 02:09:04;;;;;;;;;;;;;;;14.07;45.38;100303.28;4515680;31;34259;-87
2022/11/27 02:11:36;;;;;;;;;;;;;;;14.27;44.94;100300.97;4515311;31;34376;-87
2022/11/27 02:14:09;;;;;;;;;;;;;;;14.30;44.81;100295.81;4514754;31;33708;-91
2022/11/27 02:16:49;;;;;;;;;;;;;;;14.38;44.69;100298.53;4513906;31;34018;-88
2022/11/27 02:19:36;;;;;;;;;;;;;;;14.34;44.83;100303.72;4515398;31;35212;-91
2022/11/27 02:22:22;;;;;;;;;;;;;;;14.56;44.33;100294.50;4515097;31;35851;-92
2022/11/27 02:25:08;;;;;;;;;;;;;;;14.70;43.92;100288.59;4515213;31;33555;-92
2022/11/27 02:27:55;;;;;;;;;;;;;;;14.51;44.32;100285.75;4515309;31;34119;-91
2022/11/27 02:30:23;;;;;;;;;;;;;;;14.36;44.47;100288.97;4513651;31;35202;-91
2022/11/27 02:32:56;;;;;;;;;;;;;;;14.35;44.52;100292.41;4515263;31;35295;-92
2022/11/27 02:35:35;;;;;;;;;;;;;;;14.38;44.47;100288.97;4514118;31;33387;-92
2022/11/27 02:38:06;;;;;;;;;;;;;;;14.51;44.25;100290.97;4514926;31;34244;-88
2022/11/27 02:40:50;;;;;;;;;;;;;;;14.29;44.69;100300.16;4514010;31;35455;-87
2022/11/27 02:43:19;;;;;;;;;;;;;;;14.31;44.65;100294.94;4513863;31;34600;-92
2022/11/27 02:45:47;;;;;;;;;;;;;;;14.36;44.60;100299.41;4514043;31;33393;-91
2022/11/27 02:48:15;;;;;;;;;;;;;;;14.16;45.20;100306.00;4513719;31;34361;-91
2022/11/27 02:50:43;;;;;;;;;;;;;;;14.18;45.07;100300.84;4513919;31;35881;-87
2022/11/27 02:53:15;;;;;;;;;;;;;;;14.29;45.00;100296.69;4514029;31;34350;-87
2022/11/27 02:55:42;;;;;;;;;;;;;;;13.85;45.82;100297.69;4513863;31;33186;-88
2022/11/27 02:58:10;;;;;;;;;;;;;;;14.17;45.41;100306.88;4513934;31;34286;-91
2022/11/27 03:00:37;;;;;;;;;;;;;;;14.16;45.27;100302.53;4514279;31;35266;-89
2022/11/27 03:03:04;;;;;;;;;;;;;;;14.03;45.42;100307.56;4513904;31;34303;-89
2022/11/27 03:05:32;;;;;;;;;;;;;;;14.24;45.03;100306.13;4514087;31;34389;-90
2022/11/27 03:08:04;;;;;;;;;;;;;;;13.92;46.22;100305.63;4513576;31;33642;-91
2022/11/27 03:10:33;;;;;;;;;;;;;;;14.06;45.55;100299.78;4514897;31;34348;-88
2022/11/27 03:13:01;;;;;;;;;;;;;;;13.56;46.75;100310.19;4513655;31;35252;-92
2022/11/27 03:15:30;;;;;;;;;;;;;;;13.73;46.41;100301.81;4513661;31;33498;-91
2022/11/27 03:17:59;;;;;;;;;;;;;;;13.22;47.57;100303.41;4513944;31;33870;-88
2022/11/27 03:20:31;;;;;;;;;;;;;;;13.13;47.94;100309.28;4513587;31;35256;-91
2022/11/27 03:22:58;;;;;;;;;;;;;;;13.30;47.51;100301.00;4513272;31;35096;-92
2022/11/27 03:25:25;;;;;;;;;;;;;;;13.90;46.13;100304.69;4514862;31;34426;-91
2022/11/27 03:27:57;;;;;;;;;;;;;;;13.82;45.70;100304.56;4513518;31;34151;-87
2022/11/27 03:30:24;;;;;;;;;;;;;;;13.85;45.62;100302.00;4513363;31;35302;-88
2022/11/27 03:32:51;;;;;;;;;;;;;;;13.79;45.52;100304.53;4514927;31;35197;-87
2022/11/27 03:35:20;;;;;;;;;;;;;;;13.73;45.64;100307.03;4514854;31;33777;-88
2022/11/27 03:37:47;;;;;;;;;;;;;;;14.04;44.88;100314.50;4513223;31;34114;-90
2022/11/27 03:40:14;;;;;;;;;;;;;;;14.20;44.33;100318.25;4514327;31;34128;-88
2022/11/27 03:42:48;;;;;;;;;;;;;;;14.22;44.15;100318.28;4513234;31;34400;-89
2022/11/27 03:45:32;;;;;;;;;;;;;;;13.97;44.89;100320.47;4513394;31;33988;-91
2022/11/27 03:48:00;;;;;;;;;;;;;;;13.51;46.33;100321.38;4514631;31;34263;-89
2022/11/27 03:50:53;;;;;;;;;;;;;;;13.61;46.12;100313.75;4514434;31;34305;-92
2022/11/27 03:53:24;;;;;;;;;;;;;;;13.72;46.11;100320.91;4490221;31;35116;-91
2022/11/27 03:55:54;;;;;;;;;;;;;;;13.76;45.96;100317.50;4513634;31;34101;-89
2022/11/27 03:58:39;;;;;;;;;;;;;;;13.66;46.11;100315.56;4514710;31;34689;-88
2022/11/27 04:01:07;;;;;;;;;;;;;;;13.44;46.62;100314.28;4513217;31;34874;-88
2022/11/27 04:03:35;;;;;;;;;;;;;;;13.10;47.38;100311.81;4513410;31;34509;-91
2022/11/27 04:06:02;;;;;;;;;;;;;;;13.06;47.73;100314.34;4514245;31;34387;-87
2022/11/27 04:08:29;;;;;;;;;;;;;;;13.07;47.30;100313.53;4514642;31;34854;-91
2022/11/27 04:10:57;;;;;;;;;;;;;;;13.27;47.00;100312.22;4514921;31;33875;-91
2022/11/27 04:13:24;;;;;;;;;;;;;;;13.31;46.49;100311.44;4514837;31;33889;-88
2022/11/27 04:15:51;;;;;;;;;;;;;;;13.71;45.66;100311.31;4514700;31;34101;-87
2022/11/27 04:18:18;;;;;;;;;;;;;;;13.48;46.16;100306.53;4514800;31;34859;-91
2022/11/27 04:20:46;;;;;;;;;;;;;;;13.70;45.40;100313.03;4514366;31;35229;-90
2022/11/27 04:23:14;;;;;;;;;;;;;;;13.93;44.61;100316.06;4514453;31;35081;-87
2022/11/27 04:25:41;;;;;;;;;;;;;;;13.74;44.66;100321.78;4514320;31;33070;-91
2022/11/27 04:28:08;;;;;;;;;;;;;;;13.81;44.33;100316.72;4514120;31;33693;-89
2022/11/27 04:30:35;;;;;;;;;;;;;;;13.86;44.40;100317.69;4514205;31;33974;-91
2022/11/27 04:33:02;;;;;;;;;;;;;;;13.55;44.67;100321.44;4514378;31;35101;-89
2022/11/27 04:35:30;;;;;;;;;;;;;;;13.44;44.96;100324.69;4514284;31;32850;-89
2022/11/27 04:37:57;;;;;;;;;;;;;;;13.69;44.24;100319.13;4513976;31;33931;-91
2022/11/27 04:40:24;;;;;;;;;;;;;;;13.52;44.58;100318.78;4514044;31;34399;-92
2022/11/27 04:42:52;;;;;;;;;;;;;;;13.27;45.81;100311.34;4513835;31;34350;-88
2022/11/27 04:45:19;;;;;;;;;;;;;;;13.44;45.57;100316.88;4512711;31;34245;-91
2022/11/27 04:47:46;;;;;;;;;;;;;;;13.00;46.68;100307.28;4513932;31;34363;-87
2022/11/27 04:50:13;;;;;;;;;;;;;;;13.32;46.07;100307.09;4513728;31;34511;-91
2022/11/27 04:52:41;;;;;;;;;;;;;;;13.50;45.69;100307.47;4514715;31;34238;-92
2022/11/27 04:55:08;;;;;;;;;;;;;;;13.44;45.64;100307.34;4516078;31;33602;-91
2022/11/27 04:57:36;;;;;;;;;;;;;;;13.38;45.63;100304.63;4515859;31;35013;-87
2022/11/27 05:00:04;;;;;;;;;;;;;;;13.14;46.25;100305.88;4515887;31;35055;-87
2022/11/27 05:02:31;;;;;;;;;;;;;;;13.43;45.47;100304.72;4514607;31;35331;-88
2022/11/27 05:04:59;;;;;;;;;;;;;;;13.13;46.30;100306.69;4515958;31;33604;-87
2022/11/27 05:07:26;;;;;;;;;;;;;;;12.66;47.28;100310.88;4516235;31;35111;-92
2022/11/27 05:09:53;;;;;;;;;;;;;;;12.61;47.82;100307.28;4515881;31;34504;-92
2022/11/27 05:12:20;;;;;;;;;;;;;;;12.60;47.69;100313.34;4515792;31;34421;-87
2022/11/27 05:14:48;;;;;;;;;;;;;;;12.61;47.95;100316.00;4515931;31;33040;-91
2022/11/27 05:17:15;;;;;;;;;;;;;;;12.28;48.63;100310.00;4515957;31;34540;-91
2022/11/27 05:19:42;;;;;;;;;;;;;;;12.09;49.16;100304.34;4515709;31;34410;-88
2022/11/27 05:22:09;;;;;;;;;;;;;;;12.03;49.57;100304.19;4515912;31;35084;-91
2022/11/27 05:24:37;;;;;;;;;;;;;;;12.19;49.39;100310.63;4516059;31;33371;-91
2022/11/27 05:27:04;;;;;;;;;;;;;;;12.07;49.68;100319.00;4516090;31;34291;-87
2022/11/27 05:29:31;;;;;;;;;;;;;;;12.14;49.41;100320.91;4515790;31;34144;-87
2022/11/27 05:31:59;;;;;;;;;;;;;;;12.42;48.68;100313.78;4515749;31;34267;-87
2022/11/27 05:34:26;;;;;;;;;;;;;;;11.83;49.41;100311.47;4515852;31;33389;-88
2022/11/27 05:36:53;;;;;;;;;;;;;;;11.88;49.70;100301.19;4515666;31;34872;-87
2022/11/27 05:39:21;;;;;;;;;;;;;;;12.42;48.67;100311.19;4515621;31;35313;-92
2022/11/27 05:41:48;;;;;;;;;;;;;;;11.57;50.80;100315.06;4515704;31;35149;-87
2022/11/27 05:44:15;;;;;;;;;;;;;;;11.95;49.98;100308.31;4515757;31;33653;-87
2022/11/27 05:46:42;;;;;;;;;;;;;;;11.75;49.96;100304.28;4515543;31;34364;-88
2022/11/27 05:49:11;;;;;;;;;;;;;;;11.89;50.06;100302.94;4514320;31;34031;-89
2022/11/27 05:51:38;;;;;;;;;;;;;;;11.95;49.75;100303.12;4514325;31;34531;-92
2022/11/27 05:54:06;;;;;;;;;;;;;;;11.76;50.09;100306.03;4515528;31;34425;-87
2022/11/27 05:56:33;;;;;;;;;;;;;;;12.28;48.81;100315.19;4515683;31;35106;-87
2022/11/27 05:59:00;;;;;;;;;;;;;;;11.39;50.83;100318.03;4515438;31;34259;-87
2022/11/27 06:01:28;;;;;;;;;;;;;;;11.52;50.46;100320.16;4515320;31;34384;-92
2022/11/27 06:03:55;;;;;;;;;;;;;;;11.64;50.25;100322.19;4513460;31;33675;-88
2022/11/27 06:06:22;;;;;;;;;;;;;;;12.53;47.90;100314.03;4515603;31;34389;-89
2022/11/27 06:08:49;;;;;;;;;;;;;;;12.32;48.07;100312.69;4514402;31;33322;-91
2022/11/27 06:11:18;;;;;;;;;;;;;;;12.20;48.67;100309.81;4515500;31;35162;-87
2022/11/27 06:13:45;;;;;;;;;;;;;;;12.45;48.37;100308.66;4515464;31;33481;-92
2022/11/27 06:16:16;;;;;;;;;;;;;;;12.41;48.36;100309.44;4515342;31;34984;-88
2022/11/27 06:18:44;;;;;;;;;;;;;;;12.40;48.57;100315.47;4515135;31;35081;-90
2022/11/27 06:21:12;;;;;;;;;;;;;;;12.75;47.82;100326.69;4515507;31;34474;-90
2022/11/27 06:23:40;;;;;;;;;;;;;;;12.89;47.42;100321.81;4515488;31;33271;-87
2022/11/27 06:26:11;;;;;;;;;;;;;;;13.00;47.09;100322.91;4515199;31;35087;-87
2022/11/27 06:28:38;;;;;;;;;;;;;;;13.30;46.77;100321.84;4514095;31;35246;-88
2022/11/27 06:31:06;;;;;;;;;;;;;;;13.32;46.70;100325.34;4515007;31;35233;-86
2022/11/27 06:33:36;;;;;;;;;;;;;;;13.49;46.32;100329.16;4515589;31;34462;-90
2022/11/27 06:36:03;;;;;;;;;;;;;;;13.52;46.37;100323.12;4515263;31;34144;-89
2022/11/27 06:38:31;;;;;;;;;;;;;;;13.59;46.16;100325.00;4515463;31;33887;-87
2022/11/27 06:41:05;;;;;;;;;;;;;;;13.63;45.84;100327.69;4515150;31;34477;-92
2022/11/27 06:43:33;;;;;;;;;;;;;;;13.65;45.78;100327.72;4515857;31;33448;-88
2022/11/27 06:46:00;;;;;;;;;;;;;;;13.62;45.91;100333.75;4514332;31;35184;-92
2022/11/27 06:48:28;;;;;;;;;;;;;;;13.72;45.89;100336.53;4514198;31;34917;-90
2022/11/27 06:51:02;;;;;;;;;;;;;;;13.88;45.67;100338.56;4514242;31;34459;-90
2022/11/27 06:53:32;;;;;;;;;;;;;;;14.00;45.35;100341.38;4515166;31;34104;-91
2022/11/27 06:56:03;;;;;;;;;;;;;;;14.18;45.16;100342.56;4515104;31;35199;-92
2022/11/27 06:58:30;;;;;;;;;;;;;;;14.20;45.21;100340.84;4515015;31;35149;-88
2022/11/27 07:00:58;;;;;;;;;;;;;;;14.08;45.12;100331.97;4515031;31;34519;-92
2022/11/27 07:03:25;;;;;;;;;;;;;;;13.99;45.36;100328.34;4515449;31;33631;-87
2022/11/27 07:05:52;;;;;;;;;;;;;;;14.24;44.83;100329.63;4515148;31;33700;-92
2022/11/27 07:08:21;;;;;;;;;;;;;;;13.90;45.52;100326.44;4514889;31;34319;-91
2022/11/27 07:10:48;;;;;;;;;;;;;;;13.18;47.33;100321.53;4515087;31;34104;-91
2022/11/27 07:13:15;;;;;;;;;;;;;;;13.89;45.69;100340.31;4514846;31;33119;-88
2022/11/27 07:15:42;;;;;;;;;;;;;;;13.66;46.22;100331.19;4513599;31;34895;-88
2022/11/27 07:18:10;;;;;;;;;;;;;;;13.71;46.35;100334.75;4515081;31;35024;-92
2022/11/27 07:20:37;;;;;;;;;;;;;;;13.45;47.00;100334.25;4514828;31;35257;-87
2022/11/27 07:23:04;;;;;;;;;;;;;;;13.67;46.71;100332.94;4514726;31;33604;-91
2022/11/27 07:25:31;;;;;;;;;;;;;;;13.55;47.37;100341.41;4514925;31;35133;-92
2022/11/27 07:27:58;;;;;;;;;;;;;;;12.85;49.01;100340.81;4514755;31;35304;-91
2022/11/27 07:30:26;;;;;;;;;;;;;;;12.31;50.54;100346.44;4514691;31;34299;-91
2022/11/27 07:32:53;;;;;;;;;;;;;;;12.30;50.65;100347.28;4514887;31;33213;-88
2022/11/27 07:35:20;;;;;;;;;;;;;;;12.62;50.37;100346.34;4514961;31;33510;-87
2022/11/27 07:37:47;;;;;;;;;;;;;;;12.83;49.89;100348.56;4514578;31;34796;-92
2022/11/27 07:40:17;;;;;;;;;;;;;;;12.52;50.70;100353.91;4514721;31;34840;-87
2022/11/27 07:42:44;;;;;;;;;;;;;;;12.10;51.60;100355.47;4514702;31;33112;-89
2022/11/27 07:45:11;;;;;;;;;;;;;;;11.90;52.65;100357.56;4514644;31;33460;-89
2022/11/27 07:47:38;;;;;;;;;;;;;;;12.71;50.49;100350.88;4514777;31;33815;-91
2022/11/27 07:50:07;;;;;;;;;;;;;;;12.37;51.11;100355.28;4514746;31;34893;-90
2022/11/27 07:52:35;;;;;;;;;;;;;;;11.49;52.82;100346.03;4514431;31;33432;-88
2022/11/27 07:55:08;;;;;;;;;;;;;;;11.07;54.97;100343.97;4513444;31;34202;-91
2022/11/27 07:57:35;;;;;;;;;;;;;;;11.56;53.38;100350.56;4514362;31;33958;-89
2022/11/27 08:00:03;;;;;;;;;;;;;;;12.27;51.94;100348.09;4514738;31;34269;-92
2022/11/27 08:02:30;;;;;;;;;;;;;;;11.92;52.88;100337.69;4514563;31;33340;-91
2022/11/27 08:04:57;;;;;;;;;;;;;;;11.67;53.55;100353.44;4514408;31;34370;-88
2022/11/27 08:07:28;;;;;;;;;;;;;;;12.25;51.98;100354.12;4514489;31;34830;-88
2022/11/27 08:09:57;;;;;;;;;;;;;;;13.04;49.92;100349.91;4514332;31;35069;-87
2022/11/27 08:12:24;;;;;;;;;;;;;;;12.56;50.92;100353.13;4514056;31;33547;-91
2022/11/27 08:14:51;;;;;;;;;;;;;;;12.58;51.35;100351.47;4514498;31;35150;-90
2022/11/27 08:17:19;;;;;;;;;;;;;;;12.46;51.20;100352.03;4514212;31;34440;-92
2022/11/27 08:19:46;;;;;;;;;;;;;;;12.93;50.21;100347.06;4514053;31;34301;-87
2022/11/27 08:22:14;;;;;;;;;;;;;;;12.70;50.35;100356.06;4514286;31;33363;-91
2022/11/27 08:24:41;;;;;;;;;;;;;;;12.76;50.95;100353.59;4512930;31;33703;-91
2022/11/27 08:27:09;;;;;;;;;;;;;;;12.81;50.49;100352.87;4514413;31;34774;-87
2022/11/27 08:29:36;;;;;;;;;;;;;;;13.39;49.37;100353.25;4516285;31;34048;-91
2022/11/27 08:32:04;;;;;;;;;;;;;;;13.73;48.71;100366.97;4516588;31;33427;-91
2022/11/27 08:34:31;;;;;;;;;;;;;;;13.55;49.09;100370.94;4516231;31;35153;-91
2022/11/27 08:36:58;;;;;;;;;;;;;;;13.51;48.77;100363.91;4516712;31;35141;-92
2022/11/27 08:39:26;;;;;;;;;;;;;;;13.01;49.58;100365.44;4516251;31;35182;-89
2022/11/27 08:41:53;;;;;;;;;;;;;;;12.49;51.35;100370.31;4515834;31;33459;-90
2022/11/27 08:44:20;;;;;;;;;;;;;;;13.05;49.77;100368.12;4516387;31;34008;-91
2022/11/27 08:46:47;;;;;;;;;;;;;;;13.05;49.30;100362.94;4516311;31;34572;-90
2022/11/27 08:49:15;;;;;;;;;;;;;;;12.77;50.10;100360.56;4515964;31;35098;-91
2022/11/27 08:51:42;;;;;;;;;;;;;;;13.06;49.68;100364.69;4516036;31;34366;-91
2022/11/27 08:54:09;;;;;;;;;;;;;;;13.37;49.00;100360.16;4515889;31;35042;-91
2022/11/27 08:56:36;;;;;;;;;;;;;;;13.00;50.10;100368.91;4515571;31;34529;-91
2022/11/27 08:59:03;;;;;;;;;;;;;;;12.85;50.26;100377.25;4514522;31;34559;-92
2022/11/27 09:01:31;;;;;;;;;;;;;;;13.36;49.09;100376.63;4515899;31;33593;-91
2022/11/27 09:03:58;;;;;;;;;;;;;;;13.22;49.13;100381.53;4514640;31;33521;-87
2022/11/27 09:06:27;;;;;;;;;;;;;;;13.67;48.09;100382.47;4515894;31;33922;-88
2022/11/27 09:08:54;;;;;;;;;;;;;;;13.73;47.91;100390.41;4514669;31;34117;-93
2022/11/27 09:11:22;;;;;;;;;;;;;;;13.48;48.22;100384.69;4515817;31;33888;-88
2022/11/27 09:13:49;;;;;;;;;;;;;;;13.25;49.21;100394.62;4515925;31;35050;-92
2022/11/27 09:16:17;;;;;;;;;;;;;;;13.30;49.09;100399.97;4515925;31;35180;-87
2022/11/27 09:18:44;;;;;;;;;;;;;;;12.76;50.46;100400.44;4515778;31;33942;-86
2022/11/27 09:21:12;;;;;;;;;;;;;;;12.91;49.85;100388.66;4516150;31;33279;-92
2022/11/27 09:23:39;;;;;;;;;;;;;;;12.66;50.26;100399.34;4501476;31;34133;-88
2022/11/27 09:26:08;;;;;;;;;;;;;;;13.13;49.23;100389.13;4515644;31;34213;-87
2022/11/27 09:28:35;;;;;;;;;;;;;;;13.55;48.39;100390.91;4515816;31;34477;-87
2022/11/27 09:31:03;;;;;;;;;;;;;;;14.04;47.19;100384.91;4514660;31;33513;-89
2022/11/27 09:33:31;;;;;;;;;;;;;;;13.75;47.45;100391.31;4514409;31;33939;-92
2022/11/27 09:36:01;;;;;;;;;;;;;;;13.84;47.53;100386.28;4515700;31;34054;-88
2022/11/27 09:38:29;;;;;;;;;;;;;;;13.54;48.13;100374.41;4513847;31;34546;-87
2022/11/27 09:40:57;;;;;;;;;;;;;;;13.25;48.63;100375.53;4515218;31;34391;-88
2022/11/27 09:43:30;;;;;;;;;;;;;;;13.08;48.99;100377.75;4514531;31;34020;-90
2022/11/27 09:46:00;;;;;;;;;;;;;;;13.05;49.04;100375.06;4514404;31;34502;-91
2022/11/27 09:48:30;;;;;;;;;;;;;;;12.68;50.03;100382.03;4514238;31;34634;-88
2022/11/27 09:50:58;;;;;;;;;;;;;;;12.90;49.47;100383.41;4514431;31;33310;-91
2022/11/27 09:53:30;;;;;;;;;;;;;;;13.24;48.88;100385.06;4515240;31;33901;-88
2022/11/27 09:55:57;;;;;;;;;;;;;;;13.68;47.32;100376.44;4514233;31;34998;-88
2022/11/27 09:58:28;;;;;;;;;;;;;;;13.59;47.84;100367.56;4514234;31;34286;-91
2022/11/27 10:00:55;;;;;;;;;;;;;;;12.67;49.90;100372.47;4515293;31;34384;-91
2022/11/27 10:03:26;;;;;;;;;;;;;;;11.99;51.61;100369.03;4515513;31;35057;-91
2022/11/27 10:06:00;;;;;;;;;;;;;;;12.60;50.67;100363.63;4515725;31;33994;-89
2022/11/27 10:08:46;;;;;;;;;;;;;;;13.60;48.04;100358.91;4514129;31;34059;-91
2022/11/27 10:11:22;;;;;;;;;;;;;;;13.23;48.76;100348.56;4515491;31;33720;-92
2022/11/27 10:13:49;;;;;;;;;;;;;;;13.07;49.22;100358.66;4515486;31;34189;-92
2022/11/27 10:16:22;;;;;;;;;;;;;;;13.30;48.75;100350.47;4515718;31;34478;-87
2022/11/27 10:18:54;;;;;;;;;;;;;;;12.78;50.10;100351.91;4515401;31;34741;-91
2022/11/27 10:21:24;;;;;;;;;;;;;;;13.15;49.36;100348.41;4513923;31;33610;-87
2022/11/27 10:23:55;;;;;;;;;;;;;;;13.32;49.03;100340.97;4514237;31;34249;-87
2022/11/27 10:26:33;;;;;;;;;;;;;;;13.97;46.80;100343.94;4515372;31;33962;-87
2022/11/27 10:29:08;;;;;;;;;;;;;;;13.08;49.19;100342.19;4514031;31;34230;-91
2022/11/27 10:31:48;;;;;;;;;;;;;;;13.47;48.56;100341.25;4514142;31;33399;-89
2022/11/27 10:34:27;;;;;;;;;;;;;;;14.14;46.78;100338.16;4514044;31;34403;-91
2022/11/27 10:36:54;;;;;;;;;;;;;;;13.93;46.59;100341.25;4513703;31;34789;-90
2022/11/27 10:39:23;;;;;;;;;;;;;;;12.88;49.46;100343.47;4515300;31;34361;-92
2022/11/27 10:41:52;;;;;;;;;;;;;;;13.36;48.29;100340.16;4513771;31;33749;-87
2022/11/27 10:44:27;;;;;;;;;;;;;;;12.93;49.43;100341.84;4515219;31;34740;-91
2022/11/27 10:46:56;;;;;;;;;;;;;;;13.04;49.26;100329.06;4513840;31;34473;-91
2022/11/27 10:49:23;;;;;;;;;;;;;;;13.83;47.88;100329.81;4513705;31;34614;-89
2022/11/27 10:51:50;;;;;;;;;;;;;;;13.34;48.45;100326.25;4514890;31;33666;-92
2022/11/27 10:54:22;;;;;;;;;;;;;;;13.70;47.35;100328.69;4515169;31;35057;-87
2022/11/27 10:57:08;;;;;;;;;;;;;;;13.32;48.80;100326.19;4513727;31;35294;-88
2022/11/27 10:59:36;;;;;;;;;;;;;;;13.67;47.85;100327.75;4515216;31;34313;-88
2022/11/27 11:02:06;;;;;;;;;;;;;;;13.19;49.14;100315.50;4513690;31;33420;-92
2022/11/27 11:04:34;;;;;;;;;;;;;;;13.41;48.07;100306.41;4513978;31;34221;-92
2022/11/27 11:07:17;;;;;;;;;;;;;;;13.85;47.16;100307.22;4514881;31;33961;-87
2022/11/27 11:09:45;;;;;;;;;;;;;;;14.02;47.37;100303.19;4513865;31;34368;-90
2022/11/27 11:12:19;;;;;;;;;;;;;;;13.97;46.73;100307.44;4514963;31;33658;-92
2022/11/27 11:14:50;;;;;;;;;;;;;;;13.77;47.26;100307.09;4513949;31;33666;-88
2022/11/27 11:17:21;;;;;;;;;;;;;;;13.37;48.24;100302.84;4514943;31;34484;-91
2022/11/27 11:19:49;;;;;;;;;;;;;;;13.31;48.82;100292.34;4513322;31;34065;-91
2022/11/27 11:22:16;;;;;;;;;;;;;;;13.65;48.28;100298.19;4514866;31;34678;-91
2022/11/27 11:24:44;;;;;;;;;;;;;;;13.71;48.22;100298.28;4513627;31;33896;-91
2022/11/27 11:27:16;;;;;;;;;;;;;;;14.25;46.84;100281.84;4513572;31;34013;-92
2022/11/27 11:29:51;;;;;;;;;;;;;;;14.38;46.48;100282.88;4514861;31;34216;-92
2022/11/27 11:32:21;;;;;;;;;;;;;;;14.24;46.99;100274.84;4515096;31;34335;-87
2022/11/27 11:35:08;;;;;;;;;;;;;;;13.76;47.96;100283.63;4514732;31;34966;-91
2022/11/27 11:37:39;;;;;;;;;;;;;;;13.56;48.19;100278.94;4514811;31;34351;-90
2022/11/27 11:40:12;;;;;;;;;;;;;;;13.46;48.89;100271.78;4513795;31;35258;-88
2022/11/27 11:42:57;;;;;;;;;;;;;;;13.51;48.68;100269.25;4514867;31;34410;-92
2022/11/27 11:45:25;;;;;;;;;;;;;;;13.68;48.11;100267.84;4514749;31;34189;-91
2022/11/27 11:48:16;;;;;;;;;;;;;;;14.17;47.08;100263.47;4513506;31;34273;-92
2022/11/27 11:50:45;;;;;;;;;;;;;;;13.10;49.58;100258.88;4513388;31;34306;-91
2022/11/27 11:53:31;;;;;;;;;;;;;;;13.60;48.19;100262.50;4513765;31;34215;-92
2022/11/27 11:56:17;;;;;;;;;;;;;;;12.08;51.53;100262.69;4514556;31;35100;-87
2022/11/27 11:58:48;;;;;;;;;;;;;;;12.05;52.49;100265.25;4513965;31;34928;-88
2022/11/27 12:01:23;;;;;;;;;;;;;;;12.94;50.20;100260.31;4512842;31;34445;-88
2022/11/27 12:04:12;;;;;;;;;;;;;;;12.05;52.29;100260.06;4512745;31;33681;-91
2022/11/27 12:06:50;;;;;;;;;;;;;;;12.44;51.82;100251.41;4514283;31;33995;-90
2022/11/27 12:09:26;;;;;;;;;;;;;;;12.37;51.52;100250.37;4512969;31;35256;-87
2022/11/27 12:11:56;;;;;;;;;;;;;;;12.91;50.08;100249.81;4514416;31;34461;-91
2022/11/27 12:14:44;;;;;;;;;;;;;;;13.25;49.40;100253.13;4514342;31;34357;-87
2022/11/27 12:17:14;;;;;;;;;;;;;;;13.48;48.99;100259.66;4514231;31;33165;-88
2022/11/27 12:20:07;;;;;;;;;;;;;;;13.48;48.97;100254.44;4514029;31;34292;-92
2022/11/27 12:22:36;;;;;;;;;;;;;;;13.19;48.93;100250.41;4511475;31;34361;-91
2022/11/27 12:25:05;;;;;;;;;;;;;;;13.59;48.16;100249.44;4514079;31;33738;-91
2022/11/27 12:27:38;;;;;;;;;;;;;;;13.24;49.55;100244.44;4514114;31;33566;-90
2022/11/27 12:30:06;;;;;;;;;;;;;;;13.19;49.48;100247.78;4512773;31;34466;-90
2022/11/27 12:32:42;;;;;;;;;;;;;;;13.06;49.18;100247.53;4513830;31;34473;-91
2022/11/27 12:35:16;;;;;;;;;;;;;;;13.53;48.68;100242.41;4514350;31;34530;-91
2022/11/27 12:37:53;;;;;;;;;;;;;;;13.33;49.09;100247.25;4513854;31;34194;-87
2022/11/27 12:40:39;;;;;;;;;;;;;;;13.82;48.18;100247.22;4512784;31;34432;-89
2022/11/27 12:43:12;;;;;;;;;;;;;;;13.29;49.07;100236.72;4513875;31;34924;-87
2022/11/27 12:45:39;;;;;;;;;;;;;;;13.89;47.69;100233.44;4514215;31;33259;-88
2022/11/27 12:48:20;;;;;;;;;;;;;;;14.06;47.56;100232.00;4513642;31;34843;-88